DucheSS Of Scandinavia — OUZI2 — position and weather

sailwx.info

Track history (hours):
 
Tides and Currents Weather Stations Pressure Air Temp Water Temp Dewpoint Dewpoint Depression Visibility Wind Speed Wind Dir Waves Ship Positions

DucheSS Of Scandinavia

Operator: DFDS A/S

Last reported at 2018-Aug-18 00:30 UTC. Time now 2018-Aug-18 00:46 UTC.
Position N 59°06' E 010°14'.

Length 134 m; draft 5.4 m.

Type: Passenger vessel. MMSI: 219002929.

Date/timePositionNaut miles runAvg speedWind from/ knotsBaromVisibWave heightAir tempDewpointWater temp
2018-Aug-18 00:30N 59°06' E 010°14'0 0.0
2018-Aug-17 23:57N 59°06' E 010°14'0 0.0
2018-Aug-17 23:28N 59°06' E 010°14'0 0.0
2018-Aug-17 22:58N 59°06' E 010°14'0 0.0
2018-Aug-17 22:28N 59°06' E 010°14'0 0.0
2018-Aug-17 21:56N 59°06' E 010°14'0 0.0
2018-Aug-17 21:29N 59°06' E 010°14'0 0.0
2018-Aug-17 20:59N 59°06' E 010°14'0 0.0
2018-Aug-17 20:30N 59°06' E 010°14'0 0.0
2018-Aug-17 20:00N 59°06' E 010°14'1 1.1
2018-Aug-17 19:31N 59°07' E 010°14'1 1.8
2018-Aug-17 19:00N 59°08' E 010°14'4 8.4
2018-Aug-17 18:30N 59°03' E 010°15'713.9
2018-Aug-17 18:00N 59°01' E 010°28'815.4
2018-Aug-17 17:30N 59°01' E 010°42'816.0
2018-Aug-17 17:01N 58°60' E 010°58'714.7
2018-Aug-17 16:30N 58°56' E 011°10'0 0.6
2018-Aug-17 16:01N 58°56' E 011°10'4 8.8
2018-Aug-17 15:31N 58°58' E 011°02'715.0
2018-Aug-17 15:01N 59°01' E 010°50'1615.5
2018-Aug-17 14:01N 59°01' E 010°20'612.9
2018-Aug-17 13:30N 59°07' E 010°14'1 1.6
2018-Aug-17 13:01N 59°08' E 010°14'0 0.0
2018-Aug-17 12:31N 59°08' E 010°14'5 9.7
2018-Aug-17 12:01N 59°03' E 010°15'714.2
2018-Aug-17 11:31N 59°01' E 010°29'714.7
2018-Aug-17 11:01N 59°02' E 010°43'714.7
2018-Aug-17 10:30N 59°00' E 010°57'815.1
2018-Aug-17 10:01N 58°56' E 011°09'1 1.7
2018-Aug-17 09:31N 58°56' E 011°10'0 0.2
2018-Aug-17 09:00N 58°56' E 011°10'713.7
2018-Aug-17 08:30N 58°60' E 010°59'715.0
2018-Aug-17 08:01N 59°01' E 010°45'815.8
2018-Aug-17 07:31N 59°01' E 010°29'815.2
2018-Aug-17 07:00N 59°03' E 010°15'5 9.8
2018-Aug-17 06:31N 59°08' E 010°14'0 0.0
2018-Aug-17 06:01N 59°08' E 010°14'0 0.8
2018-Aug-17 05:30N 59°07' E 010°14'1 2.1
2018-Aug-17 05:00N 59°06' E 010°14'0 0.0
2018-Aug-17 04:31N 59°06' E 010°14'0 0.0
2018-Aug-17 04:00N 59°06' E 010°14'0 0.0
2018-Aug-17 03:30N 59°06' E 010°14'0 0.0
2018-Aug-17 03:00N 59°06' E 010°14'0 0.0
2018-Aug-17 02:28N 59°06' E 010°14'0 0.0
2018-Aug-17 01:58N 59°06' E 010°14'0 0.0
2018-Aug-17 01:28N 59°06' E 010°14'0 0.0
2018-Aug-17 00:59N 59°06' E 010°14'0 0.0
2018-Aug-17 00:29N 59°06' E 010°14'0 0.0
2018-Aug-16 23:59N 59°06' E 010°14'0 0.0
2018-Aug-16 23:30N 59°06' E 010°14'0 0.0
2018-Aug-16 23:00N 59°06' E 010°14'0 0.0
2018-Aug-16 22:30N 59°06' E 010°14'0 0.0
2018-Aug-16 21:58N 59°06' E 010°14'0 0.0
2018-Aug-16 21:28N 59°06' E 010°14'0 0.0
2018-Aug-16 20:59N 59°06' E 010°14'0 0.0
2018-Aug-16 20:29N 59°06' E 010°14'0 0.0
2018-Aug-16 19:59N 59°06' E 010°14'0 0.4
2018-Aug-16 19:31N 59°06' E 010°14'1 2.5
2018-Aug-16 19:01N 59°08' E 010°14'4 7.3
2018-Aug-16 18:31N 59°04' E 010°15'713.5
2018-Aug-16 18:01N 59°01' E 010°26'815.3
2018-Aug-16 17:31N 59°01' E 010°41'815.3
2018-Aug-16 17:00N 59°00' E 010°56'815.5
2018-Aug-16 16:31N 58°56' E 011°08'1 2.1
2018-Aug-16 16:00N 58°56' E 011°10'4 8.6
2018-Aug-16 15:30N 58°58' E 011°03'714.2
2018-Aug-16 15:01N 59°01' E 010°51'714.6
2018-Aug-16 14:31N 59°01' E 010°36'815.3
2018-Aug-16 14:01N 59°01' E 010°22'713.1
2018-Aug-16 13:31N 59°06' E 010°14'1 2.9
2018-Aug-16 13:00N 59°08' E 010°14'0 0.0
2018-Aug-16 12:31N 59°08' E 010°14'5 9.1
2018-Aug-16 12:00N 59°03' E 010°15'713.7
2018-Aug-16 11:31N 59°01' E 010°28'714.6
2018-Aug-16 11:01N 59°01' E 010°42'714.9
2018-Aug-16 10:31N 59°00' E 010°56'815.3
2018-Aug-16 10:00N 58°56' E 011°08'1 2.0
2018-Aug-16 09:30N 58°56' E 011°10'0 0.4
2018-Aug-16 09:01N 58°56' E 011°10'612.9
2018-Aug-16 08:31N 58°59' E 010°59'714.8
2018-Aug-16 08:01N 59°02' E 010°46'815.0
2018-Aug-16 07:31N 59°00' E 010°31'815.7
2018-Aug-16 07:00N 59°02' E 010°16'611.5
2018-Aug-16 06:30N 59°07' E 010°14'0 0.3
2018-Aug-16 06:01N 59°08' E 010°14'0 0.2
2018-Aug-16 05:30N 59°07' E 010°14'1 2.6
2018-Aug-16 05:00N 59°06' E 010°14'0 0.0
2018-Aug-16 04:28N 59°06' E 010°14'0 0.0
2018-Aug-16 03:58N 59°06' E 010°14'0 0.0
2018-Aug-16 03:28N 59°06' E 010°14'0 0.0
2018-Aug-16 02:59N 59°06' E 010°14'0 0.0
2018-Aug-16 02:29N 59°06' E 010°14'0 0.0
2018-Aug-16 01:59N 59°06' E 010°14'0 0.0
2018-Aug-16 01:30N 59°06' E 010°14'0 0.0
2018-Aug-16 01:00N 59°06' E 010°14'0 0.0
2018-Aug-16 00:30N 59°06' E 010°14'0 0.0
2018-Aug-15 23:58N 59°06' E 010°14'0 0.0
2018-Aug-15 23:28N 59°06' E 010°14'0 0.0
2018-Aug-15 22:58N 59°06' E 010°14'0 0.0
2018-Aug-15 22:29N 59°06' E 010°14'0 0.0
2018-Aug-15 21:59N 59°06' E 010°14'0 0.0
2018-Aug-15 21:29N 59°06' E 010°14'0 0.0
2018-Aug-15 21:00N 59°06' E 010°14'0 0.0
2018-Aug-15 20:30N 59°06' E 010°14'0 0.0
2018-Aug-15 20:00N 59°06' E 010°14'1 1.9
2018-Aug-15 19:30N 59°07' E 010°14'0 1.0
2018-Aug-15 19:01N 59°08' E 010°14'3 7.0
2018-Aug-15 18:31N 59°04' E 010°15'713.9
2018-Aug-15 18:01N 59°01' E 010°27'816.0
2018-Aug-15 17:31N 59°01' E 010°42'815.6
2018-Aug-15 17:01N 59°00' E 010°57'714.9
2018-Aug-15 16:31N 58°56' E 011°09'1 1.0
2018-Aug-15 16:00N 58°56' E 011°10'4 7.7
2018-Aug-15 15:31N 58°57' E 011°03'714.5
2018-Aug-15 15:01N 59°01' E 010°51'815.2
2018-Aug-15 14:31N 59°01' E 010°36'815.5
2018-Aug-15 14:00N 59°01' E 010°21'612.9
2018-Aug-15 13:31N 59°06' E 010°14'1 2.8
2018-Aug-15 13:01N 59°08' E 010°14'0 0.0
2018-Aug-15 12:31N 59°08' E 010°14'510.3
2018-Aug-15 12:01N 59°03' E 010°15'714.2
2018-Aug-15 11:31N 59°01' E 010°29'815.2
2018-Aug-15 11:01N 59°02' E 010°43'714.8
2018-Aug-15 10:31N 59°00' E 010°58'714.5
2018-Aug-15 10:00N 58°56' E 011°09'1 1.5
2018-Aug-15 09:31N 58°56' E 011°10'0 0.3
2018-Aug-15 09:00N 58°56' E 011°10'612.6
2018-Aug-15 08:31N 58°59' E 010°59'815.0
2018-Aug-15 08:00N 59°02' E 010°46'714.8
2018-Aug-15 07:31N 59°01' E 010°31'714.9
2018-Aug-15 07:01N 59°01' E 010°17'612.1
2018-Aug-15 06:30N 59°07' E 010°14'0 0.7
2018-Aug-15 06:00N 59°08' E 010°14'0 0.7
2018-Aug-15 05:30N 59°07' E 010°14'1 2.0
2018-Aug-15 04:58N 59°06' E 010°14'0 0.0
2018-Aug-15 04:29N 59°06' E 010°14'0 0.0
2018-Aug-15 03:59N 59°06' E 010°14'0 0.0
2018-Aug-15 03:29N 59°06' E 010°14'0 0.0
2018-Aug-15 03:00N 59°06' E 010°14'0 0.0
2018-Aug-15 02:30N 59°06' E 010°14'0 0.0
2018-Aug-15 02:00N 59°06' E 010°14'0 0.0
2018-Aug-15 01:31N 59°06' E 010°14'0 0.0
2018-Aug-15 00:58N 59°06' E 010°14'0 0.0
2018-Aug-15 00:28N 59°06' E 010°14'0 0.0
2018-Aug-14 23:59N 59°06' E 010°14'0 0.0
2018-Aug-14 23:29N 59°06' E 010°14'0 0.0
2018-Aug-14 22:59N 59°06' E 010°14'0 0.0
2018-Aug-14 22:30N 59°06' E 010°14'0 0.0
2018-Aug-14 22:00N 59°06' E 010°14'0 0.0
2018-Aug-14 21:30N 59°06' E 010°14'0 0.0
2018-Aug-14 20:58N 59°06' E 010°14'0 0.0
2018-Aug-14 20:28N 59°06' E 010°14'0 0.0
2018-Aug-14 19:58N 59°06' E 010°14'1 1.3
2018-Aug-14 19:30N 59°07' E 010°14'1 1.7
2018-Aug-14 19:01N 59°08' E 010°14'4 8.7
2018-Aug-14 18:30N 59°03' E 010°15'713.7
2018-Aug-14 18:01N 59°01' E 010°27'815.4
2018-Aug-14 17:31N 59°01' E 010°42'815.1
2018-Aug-14 17:01N 59°00' E 010°57'714.8
2018-Aug-14 16:31N 58°56' E 011°08'1 1.9
2018-Aug-14 16:01N 58°56' E 011°10'4 7.8
2018-Aug-14 15:31N 58°57' E 011°03'714.9
2018-Aug-14 15:01N 59°01' E 010°51'714.8
2018-Aug-14 14:30N 59°01' E 010°36'714.6
2018-Aug-14 14:01N 59°01' E 010°22'612.7
2018-Aug-14 13:31N 59°06' E 010°14'2 3.6
2018-Aug-14 13:01N 59°08' E 010°14'0 0.0
2018-Aug-14 12:31N 59°08' E 010°14'5 9.3
2018-Aug-14 12:00N 59°03' E 010°15'713.5
2018-Aug-14 11:31N 59°01' E 010°28'815.2
2018-Aug-14 11:01N 59°01' E 010°42'815.2
2018-Aug-14 10:31N 59°00' E 010°57'815.1
2018-Aug-14 10:01N 58°56' E 011°08'1 1.8
2018-Aug-14 09:30N 58°56' E 011°10'0 0.4
2018-Aug-14 09:00N 58°56' E 011°10'612.7
2018-Aug-14 08:31N 58°59' E 010°59'714.8
2018-Aug-14 08:01N 59°02' E 010°46'714.8
2018-Aug-14 07:31N 59°01' E 010°32'815.1
2018-Aug-14 07:01N 59°01' E 010°17'612.2
2018-Aug-14 06:31N 59°07' E 010°14'0 0.4
2018-Aug-14 06:01N 59°08' E 010°14'0 0.2
2018-Aug-14 05:30N 59°07' E 010°14'1 2.6
2018-Aug-14 04:59N 59°06' E 010°14'0 0.0
2018-Aug-14 04:30N 59°06' E 010°14'0 0.0
2018-Aug-14 04:00N 59°06' E 010°14'0 0.0
2018-Aug-14 03:30N 59°06' E 010°14'0 0.0
2018-Aug-14 02:58N 59°06' E 010°14'0 0.0
2018-Aug-14 02:28N 59°06' E 010°14'0 0.0
2018-Aug-14 01:58N 59°06' E 010°14'0 0.0
2018-Aug-14 01:29N 59°06' E 010°14'0 0.0
2018-Aug-14 00:59N 59°06' E 010°14'0 0.0
2018-Aug-14 00:29N 59°06' E 010°14'0 0.0
2018-Aug-14 00:00N 59°06' E 010°14'0 0.0
2018-Aug-13 23:30N 59°06' E 010°14'0 0.0
2018-Aug-13 23:00N 59°06' E 010°14'0 0.0
2018-Aug-13 22:28N 59°06' E 010°14'0 0.0
2018-Aug-13 21:58N 59°06' E 010°14'0 0.0
2018-Aug-13 21:28N 59°06' E 010°14'0 0.0
2018-Aug-13 20:59N 59°06' E 010°14'0 0.0
2018-Aug-13 20:29N 59°06' E 010°14'0 0.0
2018-Aug-13 19:59N 59°06' E 010°14'0 0.3
2018-Aug-13 19:30N 59°06' E 010°14'1 2.5
2018-Aug-13 18:59N 59°08' E 010°14'510.1
2018-Aug-13 18:30N 59°03' E 010°15'715.0
2018-Aug-13 18:00N 59°01' E 010°29'816.4
2018-Aug-13 17:30N 59°02' E 010°45'815.9
2018-Aug-13 17:00N 58°59' E 010°60'612.7
2018-Aug-13 16:30N 58°56' E 011°10'0 0.0
2018-Aug-13 16:00N 58°56' E 011°10'4 8.5
2018-Aug-13 15:30N 58°58' E 011°03'815.4
2018-Aug-13 15:00N 59°01' E 010°50'815.1
2018-Aug-13 14:31N 59°01' E 010°35'815.2
2018-Aug-13 14:00N 59°01' E 010°20'612.8
2018-Aug-13 13:30N 59°06' E 010°14'1 2.3
2018-Aug-13 13:01N 59°08' E 010°14'0 0.0
2018-Aug-13 12:31N 59°08' E 010°14'5 9.8
2018-Aug-13 12:01N 59°03' E 010°15'714.3
2018-Aug-13 11:31N 59°00' E 010°29'815.4
2018-Aug-13 11:01N 59°01' E 010°43'714.7
2018-Aug-13 10:31N 59°00' E 010°57'714.6
2018-Aug-13 10:01N 58°56' E 011°09'1 1.5
2018-Aug-13 09:31N 58°56' E 011°10'0 0.2
2018-Aug-13 09:00N 58°56' E 011°10'713.2
2018-Aug-13 08:31N 58°59' E 010°59'815.0
2018-Aug-13 08:01N 59°02' E 010°45'815.2
2018-Aug-13 07:31N 59°00' E 010°30'815.0
2018-Aug-13 07:00N 59°02' E 010°16'611.5
2018-Aug-13 06:31N 59°07' E 010°14'0 0.3
2018-Aug-13 06:00N 59°08' E 010°14'1 1.3
2018-Aug-13 05:30N 59°07' E 010°14'1 1.6
2018-Aug-13 05:00N 59°06' E 010°14'0 0.0
2018-Aug-13 04:28N 59°06' E 010°14'0 0.0
2018-Aug-13 03:58N 59°06' E 010°14'0 0.0
2018-Aug-13 03:28N 59°06' E 010°14'0 0.0
2018-Aug-13 02:59N 59°06' E 010°14'0 0.0
2018-Aug-13 02:29N 59°06' E 010°14'0 0.0
2018-Aug-13 01:59N 59°06' E 010°14'0 0.0
2018-Aug-13 01:30N 59°06' E 010°14'0 0.0
2018-Aug-13 01:00N 59°06' E 010°14'0 0.0
2018-Aug-13 00:30N 59°06' E 010°14'0 0.0
2018-Aug-12 23:58N 59°06' E 010°14'0 0.0
2018-Aug-12 23:28N 59°06' E 010°14'0 0.0
2018-Aug-12 22:58N 59°06' E 010°14'0 0.0
2018-Aug-12 22:29N 59°06' E 010°14'0 0.0
2018-Aug-12 21:59N 59°06' E 010°14'0 0.0
2018-Aug-12 21:29N 59°06' E 010°14'0 0.0
2018-Aug-12 21:00N 59°06' E 010°14'0 0.0
2018-Aug-12 20:30N 59°06' E 010°14'0 0.0
2018-Aug-12 20:00N 59°06' E 010°14'1 2.3
2018-Aug-12 19:30N 59°07' E 010°14'0 0.6
2018-Aug-12 19:00N 59°08' E 010°14'4 8.0
2018-Aug-12 18:31N 59°04' E 010°15'815.3
2018-Aug-12 18:00N 59°01' E 010°29'817.0
2018-Aug-12 17:31N 59°02' E 010°45'816.8
2018-Aug-12 17:01N 58°59' E 011°00'611.9
2018-Aug-12 16:30N 58°56' E 011°10'0 0.0
2018-Aug-12 16:01N 58°56' E 011°10'4 7.9
2018-Aug-12 15:30N 58°57' E 011°03'815.2
2018-Aug-12 15:00N 59°01' E 010°50'815.5
2018-Aug-12 14:30N 59°01' E 010°35'815.1
2018-Aug-12 14:01N 59°01' E 010°21'612.7
2018-Aug-12 13:30N 59°06' E 010°14'1 2.6
2018-Aug-12 13:01N 59°08' E 010°14'0 0.0
2018-Aug-12 12:30N 59°08' E 010°14'510.0
2018-Aug-12 12:01N 59°03' E 010°15'714.0
2018-Aug-12 11:31N 59°01' E 010°28'815.4
2018-Aug-12 11:00N 59°02' E 010°43'714.8
2018-Aug-12 10:30N 58°60' E 010°57'714.4
2018-Aug-12 10:01N 58°56' E 011°09'1 1.6
2018-Aug-12 09:30N 58°56' E 011°10'0 0.4
2018-Aug-12 09:01N 58°56' E 011°10'713.0
2018-Aug-12 08:31N 58°59' E 010°59'815.2
2018-Aug-12 08:00N 59°02' E 010°45'815.2
2018-Aug-12 07:30N 59°00' E 010°30'714.7
2018-Aug-12 07:01N 59°02' E 010°16'611.6
2018-Aug-12 06:30N 59°07' E 010°14'0 0.3
2018-Aug-12 06:00N 59°08' E 010°14'0 0.2
2018-Aug-12 05:30N 59°07' E 010°14'1 2.5
2018-Aug-12 04:59N 59°06' E 010°14'0 0.0
2018-Aug-12 04:30N 59°06' E 010°14'0 0.0
2018-Aug-12 04:00N 59°06' E 010°14'0 0.0
2018-Aug-12 03:30N 59°06' E 010°14'0 0.0
2018-Aug-12 02:58N 59°06' E 010°14'0 0.0
2018-Aug-12 02:28N 59°06' E 010°14'0 0.0
2018-Aug-12 01:58N 59°06' E 010°14'0 0.0
2018-Aug-12 01:29N 59°06' E 010°14'0 0.0
2018-Aug-12 00:59N 59°06' E 010°14'0 0.0
2018-Aug-12 00:29N 59°06' E 010°14'0 0.0
2018-Aug-12 00:00N 59°06' E 010°14'0 0.0
2018-Aug-11 23:30N 59°06' E 010°14'0 0.0
2018-Aug-11 23:00N 59°06' E 010°14'0 0.0
2018-Aug-11 22:28N 59°06' E 010°14'0 0.0
2018-Aug-11 21:58N 59°06' E 010°14'0 0.0
2018-Aug-11 21:28N 59°06' E 010°14'0 0.0
2018-Aug-11 20:59N 59°06' E 010°14'0 0.0
2018-Aug-11 20:29N 59°06' E 010°14'0 0.0
2018-Aug-11 19:59N 59°06' E 010°14'0 1.0
2018-Aug-11 19:31N 59°07' E 010°14'1 1.9
2018-Aug-11 19:00N 59°08' E 010°14'3 6.4
2018-Aug-11 18:31N 59°04' E 010°15'713.5
2018-Aug-11 18:00N 59°01' E 010°26'816.3
2018-Aug-11 17:31N 59°01' E 010°42'816.3
2018-Aug-11 17:01N 59°00' E 010°57'815.1
2018-Aug-11 16:30N 58°56' E 011°09'0 0.8
2018-Aug-11 16:00N 58°56' E 011°10'4 8.3
2018-Aug-11 15:30N 58°58' E 011°03'714.5
2018-Aug-11 15:01N 59°01' E 010°51'714.8
2018-Aug-11 14:31N 59°01' E 010°36'714.7
2018-Aug-11 14:01N 59°01' E 010°22'612.7
2018-Aug-11 13:31N 59°06' E 010°14'2 3.5
2018-Aug-11 13:01N 59°08' E 010°14'0 0.0
2018-Aug-11 12:30N 59°08' E 010°14'510.4
2018-Aug-11 12:01N 59°03' E 010°15'713.9
2018-Aug-11 11:30N 59°01' E 010°28'714.4
2018-Aug-11 11:00N 59°02' E 010°42'714.7
2018-Aug-11 10:30N 59°00' E 010°56'714.8
2018-Aug-11 10:01N 58°56' E 011°08'1 2.2
2018-Aug-11 09:31N 58°56' E 011°10'0 0.0
2018-Aug-11 09:01N 58°56' E 011°10'612.9
2018-Aug-11 08:30N 58°59' E 010°59'815.1
2018-Aug-11 08:01N 59°02' E 010°46'815.5
2018-Aug-11 07:31N 59°00' E 010°31'714.9
2018-Aug-11 07:01N 59°02' E 010°16'611.7
2018-Aug-11 06:30N 59°07' E 010°14'0 0.4
2018-Aug-11 06:00N 59°08' E 010°14'0 0.9
2018-Aug-11 05:30N 59°07' E 010°14'1 1.9
2018-Aug-11 04:58N 59°06' E 010°14'0 0.0
2018-Aug-11 04:29N 59°06' E 010°14'0 0.0
2018-Aug-11 03:59N 59°06' E 010°14'0 0.0
2018-Aug-11 03:29N 59°06' E 010°14'0 0.0
2018-Aug-11 03:00N 59°06' E 010°14'0 0.0
2018-Aug-11 02:30N 59°06' E 010°14'0 0.0
2018-Aug-11 02:00N 59°06' E 010°14'0 0.0
2018-Aug-11 01:28N 59°06' E 010°14'0 0.0
2018-Aug-11 00:58N 59°06' E 010°14'0 0.0
2018-Aug-11 00:28N 59°06' E 010°14'0 0.0
2018-Aug-10 23:59N 59°06' E 010°14'0 0.0
2018-Aug-10 23:29N 59°06' E 010°14'0 0.0
2018-Aug-10 22:59N 59°06' E 010°14'0 0.0
2018-Aug-10 22:30N 59°06' E 010°14'0 0.0
2018-Aug-10 22:00N 59°06' E 010°14'0 0.0
2018-Aug-10 21:30N 59°06' E 010°14'0 0.0
2018-Aug-10 20:58N 59°06' E 010°14'0 0.0
2018-Aug-10 20:28N 59°06' E 010°14'0 0.0
2018-Aug-10 19:58N 59°06' E 010°14'0 0.0
2018-Aug-10 19:26N 59°06' E 010°14'0 0.0
2018-Aug-10 18:59N 59°06' E 010°14'0 0.0
2018-Aug-10 18:29N 59°06' E 010°14'0 0.0
2018-Aug-10 18:00N 59°06' E 010°14'0 0.0
2018-Aug-10 17:30N 59°06' E 010°14'0 0.0
2018-Aug-10 17:00N 59°06' E 010°14'1 2.9
2018-Aug-10 16:31N 59°08' E 010°14'1 1.2
2018-Aug-10 16:00N 59°07' E 010°14'713.4
2018-Aug-10 15:30N 59°00' E 010°17'3 6.1
2018-Aug-10 15:00N 58°59' E 010°22'3 6.3
2018-Aug-10 14:31N 58°58' E 010°16'3 6.5
2018-Aug-10 14:01N 58°57' E 010°22'3 6.3
2018-Aug-10 13:31N 58°57' E 010°28'2 4.3
2018-Aug-10 13:01N 58°59' E 010°30'3 5.8
2018-Aug-10 12:30N 58°60' E 010°25'4 8.9
2018-Aug-10 12:01N 59°00' E 010°17'611.7
2018-Aug-10 11:31N 59°00' E 010°28'714.1
2018-Aug-10 11:01N 59°01' E 010°41'815.1
2018-Aug-10 10:31N 59°00' E 010°56'816.1
2018-Aug-10 10:00N 58°56' E 011°09'1 1.5
2018-Aug-10 09:30N 58°56' E 011°10'0 0.1
2018-Aug-10 09:01N 58°56' E 011°10'612.0
2018-Aug-10 08:31N 58°59' E 011°00'815.3
2018-Aug-10 08:01N 59°02' E 010°46'816.0
2018-Aug-10 07:31N 59°01' E 010°31'815.5
2018-Aug-10 07:00N 59°02' E 010°16'611.5
2018-Aug-10 06:31N 59°07' E 010°14'0 0.3
2018-Aug-10 06:00N 59°08' E 010°14'0 0.8
2018-Aug-10 05:31N 59°07' E 010°14'1 1.9
2018-Aug-10 04:58N 59°06' E 010°14'0 0.0
2018-Aug-10 04:28N 59°06' E 010°14'0 0.0
2018-Aug-10 03:59N 59°06' E 010°14'0 0.0
2018-Aug-10 03:29N 59°06' E 010°14'0 0.0
2018-Aug-10 02:59N 59°06' E 010°14'0 0.0
2018-Aug-10 02:30N 59°06' E 010°14'0 0.0
2018-Aug-10 02:00N 59°06' E 010°14'0 0.0
2018-Aug-10 01:30N 59°06' E 010°14'0 0.0
2018-Aug-10 00:58N 59°06' E 010°14'0 0.0
2018-Aug-10 00:28N 59°06' E 010°14'0 0.0
2018-Aug-09 23:58N 59°06' E 010°14'0 0.0
2018-Aug-09 23:29N 59°06' E 010°14'0 0.0
2018-Aug-09 22:59N 59°06' E 010°14'0 0.0
2018-Aug-09 22:29N 59°06' E 010°14'0 0.0
2018-Aug-09 22:00N 59°06' E 010°14'0 0.0
2018-Aug-09 21:30N 59°06' E 010°14'0 0.0
2018-Aug-09 21:00N 59°06' E 010°14'0 0.0
2018-Aug-09 20:28N 59°06' E 010°14'0 0.0
2018-Aug-09 19:58N 59°06' E 010°14'1 1.5
2018-Aug-09 19:31N 59°07' E 010°14'1 1.5
2018-Aug-09 19:00N 59°08' E 010°14'5 9.4
2018-Aug-09 18:31N 59°03' E 010°15'815.1
2018-Aug-09 18:01N 59°01' E 010°29'815.8
2018-Aug-09 17:31N 59°02' E 010°44'815.8
2018-Aug-09 17:00N 58°60' E 010°59'713.5
2018-Aug-09 16:31N 58°56' E 011°10'0 0.0
2018-Aug-09 16:01N 58°56' E 011°10'4 8.0
2018-Aug-09 15:31N 58°58' E 011°03'815.7
2018-Aug-09 15:00N 59°01' E 010°50'815.6
2018-Aug-09 14:30N 58°60' E 010°35'815.3
2018-Aug-09 14:00N 59°01' E 010°20'713.8
2018-Aug-09 13:31N 59°07' E 010°14'1 2.0
2018-Aug-09 13:00N 59°08' E 010°14'0 0.0
2018-Aug-09 12:31N 59°08' E 010°14'5 9.3
2018-Aug-09 12:01N 59°03' E 010°15'714.5
2018-Aug-09 11:30N 59°01' E 010°29'714.9
2018-Aug-09 11:01N 59°01' E 010°43'715.0
2018-Aug-09 10:31N 58°60' E 010°57'714.8
2018-Aug-09 10:01N 58°56' E 011°09'1 1.3
2018-Aug-09 09:31N 58°56' E 011°10'0 0.0
2018-Aug-09 09:00N 58°56' E 011°10'612.1
2018-Aug-09 08:31N 58°59' E 011°00'815.1
2018-Aug-09 08:01N 59°02' E 010°46'815.2
2018-Aug-09 07:30N 59°01' E 010°32'815.3
2018-Aug-09 07:01N 59°02' E 010°17'612.1
2018-Aug-09 06:31N 59°07' E 010°14'0 0.5
2018-Aug-09 06:01N 59°08' E 010°14'0 0.0
2018-Aug-09 05:30N 59°08' E 010°14'1 2.6
2018-Aug-09 04:58N 59°06' E 010°14'0 0.0
2018-Aug-09 04:28N 59°06' E 010°14'0 0.0
2018-Aug-09 03:58N 59°06' E 010°14'0 0.0
2018-Aug-09 03:29N 59°06' E 010°14'0 0.0
2018-Aug-09 02:59N 59°06' E 010°14'0 0.0
2018-Aug-09 02:29N 59°06' E 010°14'0 0.0
2018-Aug-09 02:00N 59°06' E 010°14'0 0.0
2018-Aug-09 01:30N 59°06' E 010°14'0 0.0
2018-Aug-09 01:00N 59°06' E 010°14'0 0.0
2018-Aug-09 00:28N 59°06' E 010°14'0 0.0
2018-Aug-08 23:58N 59°06' E 010°14'0 0.0
2018-Aug-08 23:28N 59°06' E 010°14'0 0.0
2018-Aug-08 22:59N 59°06' E 010°14'0 0.0
2018-Aug-08 22:29N 59°06' E 010°14'0 0.0
2018-Aug-08 21:59N 59°06' E 010°14'0 0.0
2018-Aug-08 21:30N 59°06' E 010°14'0 0.0
2018-Aug-08 21:00N 59°06' E 010°14'0 0.0
2018-Aug-08 20:30N 59°06' E 010°14'0 0.0
2018-Aug-08 19:58N 59°06' E 010°14'1 1.5
2018-Aug-08 19:30N 59°07' E 010°14'1 1.4
2018-Aug-08 18:58N 59°08' E 010°14'3 7.6
2018-Aug-08 18:31N 59°04' E 010°15'713.4
2018-Aug-08 18:01N 59°01' E 010°26'815.3
2018-Aug-08 17:31N 59°01' E 010°41'815.9
2018-Aug-08 17:00N 59°00' E 010°56'815.7
2018-Aug-08 16:30N 58°56' E 011°09'1 1.6
2018-Aug-08 16:00N 58°56' E 011°10'4 7.1
2018-Aug-08 15:30N 58°57' E 011°04'714.8
2018-Aug-08 15:01N 59°01' E 010°52'815.0
2018-Aug-08 14:31N 59°01' E 010°37'815.5
2018-Aug-08 14:01N 59°01' E 010°22'713.2
2018-Aug-08 13:30N 59°06' E 010°14'1 2.9
2018-Aug-08 13:01N 59°08' E 010°14'0 0.0
2018-Aug-08 12:30N 59°08' E 010°14'5 9.8
2018-Aug-08 12:00N 59°03' E 010°15'713.8
2018-Aug-08 11:30N 59°01' E 010°28'815.2
2018-Aug-08 11:00N 59°02' E 010°43'714.7
2018-Aug-08 10:30N 59°00' E 010°57'815.1
2018-Aug-08 10:00N 58°56' E 011°09'1 1.6
2018-Aug-08 09:30N 58°56' E 011°10'0 0.0
2018-Aug-08 09:00N 58°56' E 011°10'4 8.3
2018-Aug-08 08:30N 58°58' E 011°03'816.6
2018-Aug-08 08:00N 59°02' E 010°49'917.7
2018-Aug-08 07:30N 59°00' E 010°32'817.0
2018-Aug-08 07:01N 59°02' E 010°15'611.1
2018-Aug-08 06:30N 59°08' E 010°14'0 0.0
2018-Aug-08 06:01N 59°08' E 010°14'1 1.5
2018-Aug-08 05:30N 59°07' E 010°14'1 1.2
2018-Aug-08 04:58N 59°06' E 010°14'0 0.0
2018-Aug-08 04:29N 59°06' E 010°14'0 0.0
2018-Aug-08 03:59N 59°06' E 010°14'0 0.0
2018-Aug-08 03:29N 59°06' E 010°14'0 0.0
2018-Aug-08 03:00N 59°06' E 010°14'0 0.0
2018-Aug-08 02:30N 59°06' E 010°14'0 0.0
2018-Aug-08 02:00N 59°06' E 010°14'0 0.0
2018-Aug-08 01:28N 59°06' E 010°14'0 0.0
2018-Aug-08 00:58N 59°06' E 010°14'  
Track history (hours):
 
Tides and Currents Weather Stations Pressure Air Temp Water Temp Dewpoint Dewpoint Depression Visibility Wind Speed Wind Dir Waves Ship Positions

DucheSS Of Scandinavia

Operator: DFDS A/S

Last reported at 2018-Aug-18 00:30 UTC. Time now 2018-Aug-18 00:46 UTC.
Position N 59°06' E 010°14'.

Length 134 m; draft 5.4 m.

Type: Passenger vessel. MMSI: 219002929.

Date/timePositionNaut miles runAvg speedWind from/ knotsBaromVisibWave heightAir tempDewpointWater temp
2018-Aug-18 00:30N 59°06' E 010°14'0 0.0
2018-Aug-17 23:57N 59°06' E 010°14'0 0.0
2018-Aug-17 23:28N 59°06' E 010°14'0 0.0
2018-Aug-17 22:58N 59°06' E 010°14'0 0.0
2018-Aug-17 22:28N 59°06' E 010°14'0 0.0
2018-Aug-17 21:56N 59°06' E 010°14'0 0.0
2018-Aug-17 21:29N 59°06' E 010°14'0 0.0
2018-Aug-17 20:59N 59°06' E 010°14'0 0.0
2018-Aug-17 20:30N 59°06' E 010°14'0 0.0
2018-Aug-17 20:00N 59°06' E 010°14'1 1.1
2018-Aug-17 19:31N 59°07' E 010°14'1 1.8
2018-Aug-17 19:00N 59°08' E 010°14'4 8.4
2018-Aug-17 18:30N 59°03' E 010°15'713.9
2018-Aug-17 18:00N 59°01' E 010°28'815.4
2018-Aug-17 17:30N 59°01' E 010°42'816.0
2018-Aug-17 17:01N 58°60' E 010°58'714.7
2018-Aug-17 16:30N 58°56' E 011°10'0 0.6
2018-Aug-17 16:01N 58°56' E 011°10'4 8.8
2018-Aug-17 15:31N 58°58' E 011°02'715.0
2018-Aug-17 15:01N 59°01' E 010°50'1615.5
2018-Aug-17 14:01N 59°01' E 010°20'612.9
2018-Aug-17 13:30N 59°07' E 010°14'1 1.6
2018-Aug-17 13:01N 59°08' E 010°14'0 0.0
2018-Aug-17 12:31N 59°08' E 010°14'5 9.7
2018-Aug-17 12:01N 59°03' E 010°15'714.2
2018-Aug-17 11:31N 59°01' E 010°29'714.7
2018-Aug-17 11:01N 59°02' E 010°43'714.7
2018-Aug-17 10:30N 59°00' E 010°57'815.1
2018-Aug-17 10:01N 58°56' E 011°09'1 1.7
2018-Aug-17 09:31N 58°56' E 011°10'0 0.2
2018-Aug-17 09:00N 58°56' E 011°10'713.7
2018-Aug-17 08:30N 58°60' E 010°59'715.0
2018-Aug-17 08:01N 59°01' E 010°45'815.8
2018-Aug-17 07:31N 59°01' E 010°29'815.2
2018-Aug-17 07:00N 59°03' E 010°15'5 9.8
2018-Aug-17 06:31N 59°08' E 010°14'0 0.0
2018-Aug-17 06:01N 59°08' E 010°14'0 0.8
2018-Aug-17 05:30N 59°07' E 010°14'1 2.1
2018-Aug-17 05:00N 59°06' E 010°14'0 0.0
2018-Aug-17 04:31N 59°06' E 010°14'0 0.0
2018-Aug-17 04:00N 59°06' E 010°14'0 0.0
2018-Aug-17 03:30N 59°06' E 010°14'0 0.0
2018-Aug-17 03:00N 59°06' E 010°14'0 0.0
2018-Aug-17 02:28N 59°06' E 010°14'0 0.0
2018-Aug-17 01:58N 59°06' E 010°14'0 0.0
2018-Aug-17 01:28N 59°06' E 010°14'0 0.0
2018-Aug-17 00:59N 59°06' E 010°14'0 0.0
2018-Aug-17 00:29N 59°06' E 010°14'0 0.0
2018-Aug-16 23:59N 59°06' E 010°14'0 0.0
2018-Aug-16 23:30N 59°06' E 010°14'0 0.0
2018-Aug-16 23:00N 59°06' E 010°14'0 0.0
2018-Aug-16 22:30N 59°06' E 010°14'0 0.0
2018-Aug-16 21:58N 59°06' E 010°14'0 0.0
2018-Aug-16 21:28N 59°06' E 010°14'0 0.0
2018-Aug-16 20:59N 59°06' E 010°14'0 0.0
2018-Aug-16 20:29N 59°06' E 010°14'0 0.0
2018-Aug-16 19:59N 59°06' E 010°14'0 0.4
2018-Aug-16 19:31N 59°06' E 010°14'1 2.5
2018-Aug-16 19:01N 59°08' E 010°14'4 7.3
2018-Aug-16 18:31N 59°04' E 010°15'713.5
2018-Aug-16 18:01N 59°01' E 010°26'815.3
2018-Aug-16 17:31N 59°01' E 010°41'815.3
2018-Aug-16 17:00N 59°00' E 010°56'815.5
2018-Aug-16 16:31N 58°56' E 011°08'1 2.1
2018-Aug-16 16:00N 58°56' E 011°10'4 8.6
2018-Aug-16 15:30N 58°58' E 011°03'714.2
2018-Aug-16 15:01N 59°01' E 010°51'714.6
2018-Aug-16 14:31N 59°01' E 010°36'815.3
2018-Aug-16 14:01N 59°01' E 010°22'713.1
2018-Aug-16 13:31N 59°06' E 010°14'1 2.9
2018-Aug-16 13:00N 59°08' E 010°14'0 0.0
2018-Aug-16 12:31N 59°08' E 010°14'5 9.1
2018-Aug-16 12:00N 59°03' E 010°15'713.7
2018-Aug-16 11:31N 59°01' E 010°28'714.6
2018-Aug-16 11:01N 59°01' E 010°42'714.9
2018-Aug-16 10:31N 59°00' E 010°56'815.3
2018-Aug-16 10:00N 58°56' E 011°08'1 2.0
2018-Aug-16 09:30N 58°56' E 011°10'0 0.4
2018-Aug-16 09:01N 58°56' E 011°10'612.9
2018-Aug-16 08:31N 58°59' E 010°59'714.8
2018-Aug-16 08:01N 59°02' E 010°46'815.0
2018-Aug-16 07:31N 59°00' E 010°31'815.7
2018-Aug-16 07:00N 59°02' E 010°16'611.5
2018-Aug-16 06:30N 59°07' E 010°14'0 0.3
2018-Aug-16 06:01N 59°08' E 010°14'0 0.2
2018-Aug-16 05:30N 59°07' E 010°14'1 2.6
2018-Aug-16 05:00N 59°06' E 010°14'0 0.0
2018-Aug-16 04:28N 59°06' E 010°14'0 0.0
2018-Aug-16 03:58N 59°06' E 010°14'0 0.0
2018-Aug-16 03:28N 59°06' E 010°14'0 0.0
2018-Aug-16 02:59N 59°06' E 010°14'0 0.0
2018-Aug-16 02:29N 59°06' E 010°14'0 0.0
2018-Aug-16 01:59N 59°06' E 010°14'0 0.0
2018-Aug-16 01:30N 59°06' E 010°14'0 0.0
2018-Aug-16 01:00N 59°06' E 010°14'0 0.0
2018-Aug-16 00:30N 59°06' E 010°14'0 0.0
2018-Aug-15 23:58N 59°06' E 010°14'0 0.0
2018-Aug-15 23:28N 59°06' E 010°14'0 0.0
2018-Aug-15 22:58N 59°06' E 010°14'0 0.0
2018-Aug-15 22:29N 59°06' E 010°14'0 0.0
2018-Aug-15 21:59N 59°06' E 010°14'0 0.0
2018-Aug-15 21:29N 59°06' E 010°14'0 0.0
2018-Aug-15 21:00N 59°06' E 010°14'0 0.0
2018-Aug-15 20:30N 59°06' E 010°14'0 0.0
2018-Aug-15 20:00N 59°06' E 010°14'1 1.9
2018-Aug-15 19:30N 59°07' E 010°14'0 1.0
2018-Aug-15 19:01N 59°08' E 010°14'3 7.0
2018-Aug-15 18:31N 59°04' E 010°15'713.9
2018-Aug-15 18:01N 59°01' E 010°27'816.0
2018-Aug-15 17:31N 59°01' E 010°42'815.6
2018-Aug-15 17:01N 59°00' E 010°57'714.9
2018-Aug-15 16:31N 58°56' E 011°09'1 1.0
2018-Aug-15 16:00N 58°56' E 011°10'4 7.7
2018-Aug-15 15:31N 58°57' E 011°03'714.5
2018-Aug-15 15:01N 59°01' E 010°51'815.2
2018-Aug-15 14:31N 59°01' E 010°36'815.5
2018-Aug-15 14:00N 59°01' E 010°21'612.9
2018-Aug-15 13:31N 59°06' E 010°14'1 2.8
2018-Aug-15 13:01N 59°08' E 010°14'0 0.0
2018-Aug-15 12:31N 59°08' E 010°14'510.3
2018-Aug-15 12:01N 59°03' E 010°15'714.2
2018-Aug-15 11:31N 59°01' E 010°29'815.2
2018-Aug-15 11:01N 59°02' E 010°43'714.8
2018-Aug-15 10:31N 59°00' E 010°58'714.5
2018-Aug-15 10:00N 58°56' E 011°09'1 1.5
2018-Aug-15 09:31N 58°56' E 011°10'0 0.3
2018-Aug-15 09:00N 58°56' E 011°10'612.6
2018-Aug-15 08:31N 58°59' E 010°59'815.0
2018-Aug-15 08:00N 59°02' E 010°46'714.8
2018-Aug-15 07:31N 59°01' E 010°31'714.9
2018-Aug-15 07:01N 59°01' E 010°17'612.1
2018-Aug-15 06:30N 59°07' E 010°14'0 0.7
2018-Aug-15 06:00N 59°08' E 010°14'0 0.7
2018-Aug-15 05:30N 59°07' E 010°14'1 2.0
2018-Aug-15 04:58N 59°06' E 010°14'0 0.0
2018-Aug-15 04:29N 59°06' E 010°14'0 0.0
2018-Aug-15 03:59N 59°06' E 010°14'0 0.0
2018-Aug-15 03:29N 59°06' E 010°14'0 0.0
2018-Aug-15 03:00N 59°06' E 010°14'0 0.0
2018-Aug-15 02:30N 59°06' E 010°14'0 0.0
2018-Aug-15 02:00N 59°06' E 010°14'0 0.0
2018-Aug-15 01:31N 59°06' E 010°14'0 0.0
2018-Aug-15 00:58N 59°06' E 010°14'0 0.0
2018-Aug-15 00:28N 59°06' E 010°14'0 0.0
2018-Aug-14 23:59N 59°06' E 010°14'0 0.0
2018-Aug-14 23:29N 59°06' E 010°14'0 0.0
2018-Aug-14 22:59N 59°06' E 010°14'0 0.0
2018-Aug-14 22:30N 59°06' E 010°14'0 0.0
2018-Aug-14 22:00N 59°06' E 010°14'0 0.0
2018-Aug-14 21:30N 59°06' E 010°14'0 0.0
2018-Aug-14 20:58N 59°06' E 010°14'0 0.0
2018-Aug-14 20:28N 59°06' E 010°14'0 0.0
2018-Aug-14 19:58N 59°06' E 010°14'1 1.3
2018-Aug-14 19:30N 59°07' E 010°14'1 1.7
2018-Aug-14 19:01N 59°08' E 010°14'4 8.7
2018-Aug-14 18:30N 59°03' E 010°15'713.7
2018-Aug-14 18:01N 59°01' E 010°27'815.4
2018-Aug-14 17:31N 59°01' E 010°42'815.1
2018-Aug-14 17:01N 59°00' E 010°57'714.8
2018-Aug-14 16:31N 58°56' E 011°08'1 1.9
2018-Aug-14 16:01N 58°56' E 011°10'4 7.8
2018-Aug-14 15:31N 58°57' E 011°03'714.9
2018-Aug-14 15:01N 59°01' E 010°51'714.8
2018-Aug-14 14:30N 59°01' E 010°36'714.6
2018-Aug-14 14:01N 59°01' E 010°22'612.7
2018-Aug-14 13:31N 59°06' E 010°14'2 3.6
2018-Aug-14 13:01N 59°08' E 010°14'0 0.0
2018-Aug-14 12:31N 59°08' E 010°14'5 9.3
2018-Aug-14 12:00N 59°03' E 010°15'713.5
2018-Aug-14 11:31N 59°01' E 010°28'815.2
2018-Aug-14 11:01N 59°01' E 010°42'815.2
2018-Aug-14 10:31N 59°00' E 010°57'815.1
2018-Aug-14 10:01N 58°56' E 011°08'1 1.8
2018-Aug-14 09:30N 58°56' E 011°10'0 0.4
2018-Aug-14 09:00N 58°56' E 011°10'612.7
2018-Aug-14 08:31N 58°59' E 010°59'714.8
2018-Aug-14 08:01N 59°02' E 010°46'714.8
2018-Aug-14 07:31N 59°01' E 010°32'815.1
2018-Aug-14 07:01N 59°01' E 010°17'612.2
2018-Aug-14 06:31N 59°07' E 010°14'0 0.4
2018-Aug-14 06:01N 59°08' E 010°14'0 0.2
2018-Aug-14 05:30N 59°07' E 010°14'1 2.6
2018-Aug-14 04:59N 59°06' E 010°14'0 0.0
2018-Aug-14 04:30N 59°06' E 010°14'0 0.0
2018-Aug-14 04:00N 59°06' E 010°14'0 0.0
2018-Aug-14 03:30N 59°06' E 010°14'0 0.0
2018-Aug-14 02:58N 59°06' E 010°14'0 0.0
2018-Aug-14 02:28N 59°06' E 010°14'0 0.0
2018-Aug-14 01:58N 59°06' E 010°14'0 0.0
2018-Aug-14 01:29N 59°06' E 010°14'0 0.0
2018-Aug-14 00:59N 59°06' E 010°14'0 0.0
2018-Aug-14 00:29N 59°06' E 010°14'0 0.0
2018-Aug-14 00:00N 59°06' E 010°14'0 0.0
2018-Aug-13 23:30N 59°06' E 010°14'0 0.0
2018-Aug-13 23:00N 59°06' E 010°14'0 0.0
2018-Aug-13 22:28N 59°06' E 010°14'0 0.0
2018-Aug-13 21:58N 59°06' E 010°14'0 0.0
2018-Aug-13 21:28N 59°06' E 010°14'0 0.0
2018-Aug-13 20:59N 59°06' E 010°14'0 0.0
2018-Aug-13 20:29N 59°06' E 010°14'0 0.0
2018-Aug-13 19:59N 59°06' E 010°14'0 0.3
2018-Aug-13 19:30N 59°06' E 010°14'1 2.5
2018-Aug-13 18:59N 59°08' E 010°14'510.1
2018-Aug-13 18:30N 59°03' E 010°15'715.0
2018-Aug-13 18:00N 59°01' E 010°29'816.4
2018-Aug-13 17:30N 59°02' E 010°45'815.9
2018-Aug-13 17:00N 58°59' E 010°60'612.7
2018-Aug-13 16:30N 58°56' E 011°10'0 0.0
2018-Aug-13 16:00N 58°56' E 011°10'4 8.5
2018-Aug-13 15:30N 58°58' E 011°03'815.4
2018-Aug-13 15:00N 59°01' E 010°50'815.1
2018-Aug-13 14:31N 59°01' E 010°35'815.2
2018-Aug-13 14:00N 59°01' E 010°20'612.8
2018-Aug-13 13:30N 59°06' E 010°14'1 2.3
2018-Aug-13 13:01N 59°08' E 010°14'0 0.0
2018-Aug-13 12:31N 59°08' E 010°14'5 9.8
2018-Aug-13 12:01N 59°03' E 010°15'714.3
2018-Aug-13 11:31N 59°00' E 010°29'815.4
2018-Aug-13 11:01N 59°01' E 010°43'714.7
2018-Aug-13 10:31N 59°00' E 010°57'714.6
2018-Aug-13 10:01N 58°56' E 011°09'1 1.5
2018-Aug-13 09:31N 58°56' E 011°10'0 0.2
2018-Aug-13 09:00N 58°56' E 011°10'713.2
2018-Aug-13 08:31N 58°59' E 010°59'815.0
2018-Aug-13 08:01N 59°02' E 010°45'815.2
2018-Aug-13 07:31N 59°00' E 010°30'815.0
2018-Aug-13 07:00N 59°02' E 010°16'611.5
2018-Aug-13 06:31N 59°07' E 010°14'0 0.3
2018-Aug-13 06:00N 59°08' E 010°14'1 1.3
2018-Aug-13 05:30N 59°07' E 010°14'1 1.6
2018-Aug-13 05:00N 59°06' E 010°14'0 0.0
2018-Aug-13 04:28N 59°06' E 010°14'0 0.0
2018-Aug-13 03:58N 59°06' E 010°14'0 0.0
2018-Aug-13 03:28N 59°06' E 010°14'0 0.0
2018-Aug-13 02:59N 59°06' E 010°14'0 0.0
2018-Aug-13 02:29N 59°06' E 010°14'0 0.0
2018-Aug-13 01:59N 59°06' E 010°14'0 0.0
2018-Aug-13 01:30N 59°06' E 010°14'0 0.0
2018-Aug-13 01:00N 59°06' E 010°14'0 0.0
2018-Aug-13 00:30N 59°06' E 010°14'0 0.0
2018-Aug-12 23:58N 59°06' E 010°14'0 0.0
2018-Aug-12 23:28N 59°06' E 010°14'0 0.0
2018-Aug-12 22:58N 59°06' E 010°14'0 0.0
2018-Aug-12 22:29N 59°06' E 010°14'0 0.0
2018-Aug-12 21:59N 59°06' E 010°14'0 0.0
2018-Aug-12 21:29N 59°06' E 010°14'0 0.0
2018-Aug-12 21:00N 59°06' E 010°14'0 0.0
2018-Aug-12 20:30N 59°06' E 010°14'0 0.0
2018-Aug-12 20:00N 59°06' E 010°14'1 2.3
2018-Aug-12 19:30N 59°07' E 010°14'0 0.6
2018-Aug-12 19:00N 59°08' E 010°14'4 8.0
2018-Aug-12 18:31N 59°04' E 010°15'815.3
2018-Aug-12 18:00N 59°01' E 010°29'817.0
2018-Aug-12 17:31N 59°02' E 010°45'816.8
2018-Aug-12 17:01N 58°59' E 011°00'611.9
2018-Aug-12 16:30N 58°56' E 011°10'0 0.0
2018-Aug-12 16:01N 58°56' E 011°10'4 7.9
2018-Aug-12 15:30N 58°57' E 011°03'815.2
2018-Aug-12 15:00N 59°01' E 010°50'815.5
2018-Aug-12 14:30N 59°01' E 010°35'815.1
2018-Aug-12 14:01N 59°01' E 010°21'612.7
2018-Aug-12 13:30N 59°06' E 010°14'1 2.6
2018-Aug-12 13:01N 59°08' E 010°14'0 0.0
2018-Aug-12 12:30N 59°08' E 010°14'510.0
2018-Aug-12 12:01N 59°03' E 010°15'714.0
2018-Aug-12 11:31N 59°01' E 010°28'815.4
2018-Aug-12 11:00N 59°02' E 010°43'714.8
2018-Aug-12 10:30N 58°60' E 010°57'714.4
2018-Aug-12 10:01N 58°56' E 011°09'1 1.6
2018-Aug-12 09:30N 58°56' E 011°10'0 0.4
2018-Aug-12 09:01N 58°56' E 011°10'713.0
2018-Aug-12 08:31N 58°59' E 010°59'815.2
2018-Aug-12 08:00N 59°02' E 010°45'815.2
2018-Aug-12 07:30N 59°00' E 010°30'714.7
2018-Aug-12 07:01N 59°02' E 010°16'611.6
2018-Aug-12 06:30N 59°07' E 010°14'0 0.3
2018-Aug-12 06:00N 59°08' E 010°14'0 0.2
2018-Aug-12 05:30N 59°07' E 010°14'1 2.5
2018-Aug-12 04:59N 59°06' E 010°14'0 0.0
2018-Aug-12 04:30N 59°06' E 010°14'0 0.0
2018-Aug-12 04:00N 59°06' E 010°14'0 0.0
2018-Aug-12 03:30N 59°06' E 010°14'0 0.0
2018-Aug-12 02:58N 59°06' E 010°14'0 0.0
2018-Aug-12 02:28N 59°06' E 010°14'0 0.0
2018-Aug-12 01:58N 59°06' E 010°14'0 0.0
2018-Aug-12 01:29N 59°06' E 010°14'0 0.0
2018-Aug-12 00:59N 59°06' E 010°14'0 0.0
2018-Aug-12 00:29N 59°06' E 010°14'0 0.0
2018-Aug-12 00:00N 59°06' E 010°14'0 0.0
2018-Aug-11 23:30N 59°06' E 010°14'0 0.0
2018-Aug-11 23:00N 59°06' E 010°14'0 0.0
2018-Aug-11 22:28N 59°06' E 010°14'0 0.0
2018-Aug-11 21:58N 59°06' E 010°14'0 0.0
2018-Aug-11 21:28N 59°06' E 010°14'0 0.0
2018-Aug-11 20:59N 59°06' E 010°14'0 0.0
2018-Aug-11 20:29N 59°06' E 010°14'0 0.0
2018-Aug-11 19:59N 59°06' E 010°14'0 1.0
2018-Aug-11 19:31N 59°07' E 010°14'1 1.9
2018-Aug-11 19:00N 59°08' E 010°14'3 6.4
2018-Aug-11 18:31N 59°04' E 010°15'713.5
2018-Aug-11 18:00N 59°01' E 010°26'816.3
2018-Aug-11 17:31N 59°01' E 010°42'816.3
2018-Aug-11 17:01N 59°00' E 010°57'815.1
2018-Aug-11 16:30N 58°56' E 011°09'0 0.8
2018-Aug-11 16:00N 58°56' E 011°10'4 8.3
2018-Aug-11 15:30N 58°58' E 011°03'714.5
2018-Aug-11 15:01N 59°01' E 010°51'714.8
2018-Aug-11 14:31N 59°01' E 010°36'714.7
2018-Aug-11 14:01N 59°01' E 010°22'612.7
2018-Aug-11 13:31N 59°06' E 010°14'2 3.5
2018-Aug-11 13:01N 59°08' E 010°14'0 0.0
2018-Aug-11 12:30N 59°08' E 010°14'510.4
2018-Aug-11 12:01N 59°03' E 010°15'713.9
2018-Aug-11 11:30N 59°01' E 010°28'714.4
2018-Aug-11 11:00N 59°02' E 010°42'714.7
2018-Aug-11 10:30N 59°00' E 010°56'714.8
2018-Aug-11 10:01N 58°56' E 011°08'1 2.2
2018-Aug-11 09:31N 58°56' E 011°10'0 0.0
2018-Aug-11 09:01N 58°56' E 011°10'612.9
2018-Aug-11 08:30N 58°59' E 010°59'815.1
2018-Aug-11 08:01N 59°02' E 010°46'815.5
2018-Aug-11 07:31N 59°00' E 010°31'714.9
2018-Aug-11 07:01N 59°02' E 010°16'611.7
2018-Aug-11 06:30N 59°07' E 010°14'0 0.4
2018-Aug-11 06:00N 59°08' E 010°14'0 0.9
2018-Aug-11 05:30N 59°07' E 010°14'1 1.9
2018-Aug-11 04:58N 59°06' E 010°14'0 0.0
2018-Aug-11 04:29N 59°06' E 010°14'0 0.0
2018-Aug-11 03:59N 59°06' E 010°14'0 0.0
2018-Aug-11 03:29N 59°06' E 010°14'0 0.0
2018-Aug-11 03:00N 59°06' E 010°14'0 0.0
2018-Aug-11 02:30N 59°06' E 010°14'0 0.0
2018-Aug-11 02:00N 59°06' E 010°14'0 0.0
2018-Aug-11 01:28N 59°06' E 010°14'0 0.0
2018-Aug-11 00:58N 59°06' E 010°14'0 0.0
2018-Aug-11 00:28N 59°06' E 010°14'0 0.0
2018-Aug-10 23:59N 59°06' E 010°14'0 0.0
2018-Aug-10 23:29N 59°06' E 010°14'0 0.0
2018-Aug-10 22:59N 59°06' E 010°14'0 0.0
2018-Aug-10 22:30N 59°06' E 010°14'0 0.0
2018-Aug-10 22:00N 59°06' E 010°14'0 0.0
2018-Aug-10 21:30N 59°06' E 010°14'0 0.0
2018-Aug-10 20:58N 59°06' E 010°14'0 0.0
2018-Aug-10 20:28N 59°06' E 010°14'0 0.0
2018-Aug-10 19:58N 59°06' E 010°14'0 0.0
2018-Aug-10 19:26N 59°06' E 010°14'0 0.0
2018-Aug-10 18:59N 59°06' E 010°14'0 0.0
2018-Aug-10 18:29N 59°06' E 010°14'0 0.0
2018-Aug-10 18:00N 59°06' E 010°14'0 0.0
2018-Aug-10 17:30N 59°06' E 010°14'0 0.0
2018-Aug-10 17:00N 59°06' E 010°14'1 2.9
2018-Aug-10 16:31N 59°08' E 010°14'1 1.2
2018-Aug-10 16:00N 59°07' E 010°14'713.4
2018-Aug-10 15:30N 59°00' E 010°17'3 6.1
2018-Aug-10 15:00N 58°59' E 010°22'3 6.3
2018-Aug-10 14:31N 58°58' E 010°16'3 6.5
2018-Aug-10 14:01N 58°57' E 010°22'3 6.3
2018-Aug-10 13:31N 58°57' E 010°28'2 4.3
2018-Aug-10 13:01N 58°59' E 010°30'3 5.8
2018-Aug-10 12:30N 58°60' E 010°25'4 8.9
2018-Aug-10 12:01N 59°00' E 010°17'611.7
2018-Aug-10 11:31N 59°00' E 010°28'714.1
2018-Aug-10 11:01N 59°01' E 010°41'815.1
2018-Aug-10 10:31N 59°00' E 010°56'816.1
2018-Aug-10 10:00N 58°56' E 011°09'1 1.5
2018-Aug-10 09:30N 58°56' E 011°10'0 0.1
2018-Aug-10 09:01N 58°56' E 011°10'612.0
2018-Aug-10 08:31N 58°59' E 011°00'815.3
2018-Aug-10 08:01N 59°02' E 010°46'816.0
2018-Aug-10 07:31N 59°01' E 010°31'815.5
2018-Aug-10 07:00N 59°02' E 010°16'611.5
2018-Aug-10 06:31N 59°07' E 010°14'0 0.3
2018-Aug-10 06:00N 59°08' E 010°14'0 0.8
2018-Aug-10 05:31N 59°07' E 010°14'1 1.9
2018-Aug-10 04:58N 59°06' E 010°14'0 0.0
2018-Aug-10 04:28N 59°06' E 010°14'0 0.0
2018-Aug-10 03:59N 59°06' E 010°14'0 0.0
2018-Aug-10 03:29N 59°06' E 010°14'0 0.0
2018-Aug-10 02:59N 59°06' E 010°14'0 0.0
2018-Aug-10 02:30N 59°06' E 010°14'0 0.0
2018-Aug-10 02:00N 59°06' E 010°14'0 0.0
2018-Aug-10 01:30N 59°06' E 010°14'0 0.0
2018-Aug-10 00:58N 59°06' E 010°14'0 0.0
2018-Aug-10 00:28N 59°06' E 010°14'0 0.0
2018-Aug-09 23:58N 59°06' E 010°14'0 0.0
2018-Aug-09 23:29N 59°06' E 010°14'0 0.0
2018-Aug-09 22:59N 59°06' E 010°14'0 0.0
2018-Aug-09 22:29N 59°06' E 010°14'0 0.0
2018-Aug-09 22:00N 59°06' E 010°14'0 0.0
2018-Aug-09 21:30N 59°06' E 010°14'0 0.0
2018-Aug-09 21:00N 59°06' E 010°14'0 0.0
2018-Aug-09 20:28N 59°06' E 010°14'0 0.0
2018-Aug-09 19:58N 59°06' E 010°14'1 1.5
2018-Aug-09 19:31N 59°07' E 010°14'1 1.5
2018-Aug-09 19:00N 59°08' E 010°14'5 9.4
2018-Aug-09 18:31N 59°03' E 010°15'815.1
2018-Aug-09 18:01N 59°01' E 010°29'815.8
2018-Aug-09 17:31N 59°02' E 010°44'815.8
2018-Aug-09 17:00N 58°60' E 010°59'713.5
2018-Aug-09 16:31N 58°56' E 011°10'0 0.0
2018-Aug-09 16:01N 58°56' E 011°10'4 8.0
2018-Aug-09 15:31N 58°58' E 011°03'815.7
2018-Aug-09 15:00N 59°01' E 010°50'815.6
2018-Aug-09 14:30N 58°60' E 010°35'815.3
2018-Aug-09 14:00N 59°01' E 010°20'713.8
2018-Aug-09 13:31N 59°07' E 010°14'1 2.0
2018-Aug-09 13:00N 59°08' E 010°14'0 0.0
2018-Aug-09 12:31N 59°08' E 010°14'5 9.3
2018-Aug-09 12:01N 59°03' E 010°15'714.5
2018-Aug-09 11:30N 59°01' E 010°29'714.9
2018-Aug-09 11:01N 59°01' E 010°43'715.0
2018-Aug-09 10:31N 58°60' E 010°57'714.8
2018-Aug-09 10:01N 58°56' E 011°09'1 1.3
2018-Aug-09 09:31N 58°56' E 011°10'0 0.0
2018-Aug-09 09:00N 58°56' E 011°10'612.1
2018-Aug-09 08:31N 58°59' E 011°00'815.1
2018-Aug-09 08:01N 59°02' E 010°46'815.2
2018-Aug-09 07:30N 59°01' E 010°32'815.3
2018-Aug-09 07:01N 59°02' E 010°17'612.1
2018-Aug-09 06:31N 59°07' E 010°14'0 0.5
2018-Aug-09 06:01N 59°08' E 010°14'0 0.0
2018-Aug-09 05:30N 59°08' E 010°14'1 2.6
2018-Aug-09 04:58N 59°06' E 010°14'0 0.0
2018-Aug-09 04:28N 59°06' E 010°14'0 0.0
2018-Aug-09 03:58N 59°06' E 010°14'0 0.0
2018-Aug-09 03:29N 59°06' E 010°14'0 0.0
2018-Aug-09 02:59N 59°06' E 010°14'0 0.0
2018-Aug-09 02:29N 59°06' E 010°14'0 0.0
2018-Aug-09 02:00N 59°06' E 010°14'0 0.0
2018-Aug-09 01:30N 59°06' E 010°14'0 0.0
2018-Aug-09 01:00N 59°06' E 010°14'0 0.0
2018-Aug-09 00:28N 59°06' E 010°14'0 0.0
2018-Aug-08 23:58N 59°06' E 010°14'0 0.0
2018-Aug-08 23:28N 59°06' E 010°14'0 0.0
2018-Aug-08 22:59N 59°06' E 010°14'0 0.0
2018-Aug-08 22:29N 59°06' E 010°14'0 0.0
2018-Aug-08 21:59N 59°06' E 010°14'0 0.0
2018-Aug-08 21:30N 59°06' E 010°14'0 0.0
2018-Aug-08 21:00N 59°06' E 010°14'0 0.0
2018-Aug-08 20:30N 59°06' E 010°14'0 0.0
2018-Aug-08 19:58N 59°06' E 010°14'1 1.5
2018-Aug-08 19:30N 59°07' E 010°14'1 1.4
2018-Aug-08 18:58N 59°08' E 010°14'3 7.6
2018-Aug-08 18:31N 59°04' E 010°15'713.4
2018-Aug-08 18:01N 59°01' E 010°26'815.3
2018-Aug-08 17:31N 59°01' E 010°41'815.9
2018-Aug-08 17:00N 59°00' E 010°56'815.7
2018-Aug-08 16:30N 58°56' E 011°09'1 1.6
2018-Aug-08 16:00N 58°56' E 011°10'4 7.1
2018-Aug-08 15:30N 58°57' E 011°04'714.8
2018-Aug-08 15:01N 59°01' E 010°52'815.0
2018-Aug-08 14:31N 59°01' E 010°37'815.5
2018-Aug-08 14:01N 59°01' E 010°22'713.2
2018-Aug-08 13:30N 59°06' E 010°14'1 2.9
2018-Aug-08 13:01N 59°08' E 010°14'0 0.0
2018-Aug-08 12:30N 59°08' E 010°14'5 9.8
2018-Aug-08 12:00N 59°03' E 010°15'713.8
2018-Aug-08 11:30N 59°01' E 010°28'815.2
2018-Aug-08 11:00N 59°02' E 010°43'714.7
2018-Aug-08 10:30N 59°00' E 010°57'815.1
2018-Aug-08 10:00N 58°56' E 011°09'1 1.6
2018-Aug-08 09:30N 58°56' E 011°10'0 0.0
2018-Aug-08 09:00N 58°56' E 011°10'4 8.3
2018-Aug-08 08:30N 58°58' E 011°03'816.6
2018-Aug-08 08:00N 59°02' E 010°49'917.7
2018-Aug-08 07:30N 59°00' E 010°32'817.0
2018-Aug-08 07:01N 59°02' E 010°15'611.1
2018-Aug-08 06:30N 59°08' E 010°14'0 0.0
2018-Aug-08 06:01N 59°08' E 010°14'1 1.5
2018-Aug-08 05:30N 59°07' E 010°14'1 1.2
2018-Aug-08 04:58N 59°06' E 010°14'0 0.0
2018-Aug-08 04:29N 59°06' E 010°14'0 0.0
2018-Aug-08 03:59N 59°06' E 010°14'0 0.0
2018-Aug-08 03:29N 59°06' E 010°14'0 0.0
2018-Aug-08 03:00N 59°06' E 010°14'0 0.0
2018-Aug-08 02:30N 59°06' E 010°14'0 0.0
2018-Aug-08 02:00N 59°06' E 010°14'0 0.0
2018-Aug-08 01:28N 59°06' E 010°14'0 0.0
2018-Aug-08 00:58N 59°06' E 010°14'  

Dump ship's entire track history